This is the latest recevied weather packets stored in our database for station/object N8RJC-13. If no packets are shown the sender has not sent any weather packets the latest 10 day(s).
| Time | Temp. | Humidity | Pressure | Rain* | Wind** | Luminosity | Snow |
|---|---|---|---|---|---|---|---|
| 1778186601 | 16.11° C | 44% | 990.3 hPa | 0 mm | 0.45 m/s, 282° | - | - |
| 1778186541 | 16.11° C | 44% | 990.3 hPa | 0 mm | 0.45 m/s, 282° | - | - |
| 1778186481 | 16.11° C | 44% | 990.3 hPa | 0 mm | 0.45 m/s, 282° | - | - |
| 1778186421 | 16.11° C | 42% | 990.3 hPa | 0 mm | 0.89 m/s, 297° | - | - |
| 1778186361 | 16.11° C | 42% | 990.3 hPa | 0 mm | 0.89 m/s, 297° | - | - |
| 1778186301 | 16.11° C | 42% | 990.3 hPa | 0 mm | 0.89 m/s, 297° | - | - |
| 1778186241 | 16.11° C | 42% | 990.3 hPa | 0 mm | 0.89 m/s, 297° | - | - |
| 1778186181 | 16.11° C | 42% | 990.3 hPa | 0 mm | 0.89 m/s, 297° | - | - |
| 1778186121 | 15° C | 44% | 990.3 hPa | 0 mm | 0.45 m/s, 322° | - | - |
| 1778186061 | 15° C | 44% | 990.3 hPa | 0 mm | 0.45 m/s, 322° | - | - |
| 1778186001 | 15° C | 44% | 990.3 hPa | 0 mm | 0.45 m/s, 322° | - | - |
| 1778185941 | 15° C | 44% | 990.3 hPa | 0 mm | 0.45 m/s, 322° | - | - |
| 1778185881 | 15° C | 44% | 990.3 hPa | 0 mm | 0.45 m/s, 322° | - | - |
| 1778185821 | 15° C | 44% | 990.5 hPa | 0 mm | 1.79 m/s, 6° | - | - |
| 1778185761 | 15° C | 44% | 990.5 hPa | 0 mm | 1.79 m/s, 6° | - | - |
| 1778185701 | 15° C | 44% | 990.5 hPa | 0 mm | 1.79 m/s, 6° | - | - |
| 1778185641 | 15° C | 44% | 990.5 hPa | 0 mm | 1.79 m/s, 6° | - | - |
| 1778185581 | 15° C | 44% | 990.5 hPa | 0 mm | 1.79 m/s, 6° | - | - |
| 1778185521 | 14.44° C | 43% | 990.5 hPa | 0 mm | 1.34 m/s, 50° | - | - |
| 1778185461 | 14.44° C | 43% | 990.5 hPa | 0 mm | 1.34 m/s, 50° | - | - |
| 1778185401 | 14.44° C | 43% | 990.5 hPa | 0 mm | 1.34 m/s, 50° | - | - |
| 1778185341 | 14.44° C | 43% | 990.5 hPa | 0 mm | 1.34 m/s, 50° | - | - |
| 1778185281 | 14.44° C | 43% | 990.5 hPa | 0 mm | 1.34 m/s, 50° | - | - |
| 1778185221 | 15.56° C | 45% | 990.5 hPa | 0 mm | 0.89 m/s, 276° | - | - |
| 1778185161 | 15.56° C | 45% | 990.5 hPa | 0 mm | 0.89 m/s, 276° | - | - |
* Rain latest hour (hover to see other rain measurements)
** Current wind speed in m/s (hover to see current wind gust speed)